createdAt,value
2023-02-04T09:26:29.686Z,168.00
2023-02-04T09:28:56.506Z,143.48
2023-02-04T09:31:23.468Z,145.48
2023-02-04T09:33:50.442Z,160.13
2023-02-04T09:36:17.545Z,172.32
2023-02-04T09:38:44.425Z,192.45
2023-02-04T09:41:12.961Z,205.05
2023-02-04T09:43:44.173Z,180.65
2023-02-04T09:46:23.214Z,184.77
2023-02-04T09:48:51.003Z,183.85
2023-02-04T09:51:25.665Z,210.15
2023-02-04T09:53:54.246Z,203.63
2023-02-04T09:56:21.135Z,205.10
2023-02-04T09:58:48.009Z,211.43
2023-02-04T10:01:20.270Z,192.43
2023-02-04T10:03:50.264Z,204.00
2023-02-04T10:06:23.516Z,204.20
2023-02-04T10:08:51.593Z,203.07
2023-02-04T10:11:20.706Z,205.07
2023-02-04T10:13:53.831Z,196.40
2023-02-04T10:16:29.863Z,215.52
2023-02-04T10:19:05.175Z,190.63
2023-02-04T10:21:40.410Z,197.00
2023-02-04T10:24:22.626Z,184.25
2023-02-04T10:26:49.589Z,176.70
2023-02-04T10:29:23.926Z,176.93
2023-02-04T10:31:52.202Z,193.82
2023-02-04T10:34:24.451Z,166.25
2023-02-04T10:36:53.960Z,173.27
2023-02-04T10:39:23.582Z,177.32
2023-02-04T10:41:51.481Z,189.20
2023-02-04T10:44:21.313Z,178.32
2023-02-04T10:46:48.501Z,167.25
2023-02-04T10:49:22.010Z,173.90
2023-02-04T10:51:50.790Z,192.25
2023-02-04T10:54:30.582Z,189.02
2023-02-04T10:57:28.975Z,181.70
2023-02-04T11:00:01.482Z,191.70
2023-02-04T11:02:42.868Z,190.13
2023-02-04T11:05:18.867Z,184.52
2023-02-04T11:07:47.450Z,196.40
2023-02-04T11:10:17.060Z,189.40
2023-02-04T11:12:53.076Z,208.98
2023-02-04T11:15:38.726Z,192.98
2023-02-04T11:18:08.286Z,195.38
2023-02-04T11:20:39.775Z,180.68
2023-02-04T11:23:16.687Z,198.77
2023-02-04T11:25:43.553Z,195.98
2023-02-04T11:28:25.390Z,225.63
2023-02-04T11:31:03.890Z,203.60
2023-02-04T11:33:42.668Z,219.07
2023-02-04T11:36:13.556Z,188.95
2023-02-04T11:38:46.507Z,205.50
2023-02-04T11:41:33.701Z,183.57
2023-02-04T11:44:03.681Z,202.52
2023-02-04T11:46:30.738Z,197.75
2023-02-04T11:48:58.913Z,189.38
2023-02-04T11:51:32.533Z,197.73
2023-02-04T11:53:59.658Z,186.63
2023-02-04T11:56:30.150Z,191.07
2023-02-04T11:58:58.670Z,214.52
2023-02-04T12:01:32.032Z,202.70
2023-02-04T12:04:04.722Z,218.38
2023-02-04T12:09:16.476Z,207.13
2023-02-04T12:12:03.966Z,206.63
2023-02-04T12:14:36.831Z,192.55
2023-02-04T12:17:20.027Z,194.95
2023-02-04T12:19:46.845Z,222.40
2023-02-04T12:22:15.659Z,201.93
2023-02-04T12:24:44.041Z,204.00
2023-02-04T12:27:10.987Z,194.23
2023-02-04T12:29:37.769Z,215.35
2023-02-04T12:32:04.875Z,189.60
2023-02-04T12:34:31.755Z,182.88
2023-02-04T12:37:01.599Z,189.63
2023-02-04T12:39:28.719Z,178.45
2023-02-04T12:41:55.622Z,176.15
2023-02-04T12:44:22.446Z,186.77
2023-02-04T12:46:49.390Z,206.82
2023-02-04T12:49:16.306Z,179.20
2023-02-04T12:51:43.194Z,176.50
2023-02-04T12:54:10.046Z,180.75
2023-02-04T12:56:36.929Z,187.68
2023-02-04T12:59:03.821Z,207.07
2023-02-04T13:01:30.614Z,186.60
2023-02-04T13:03:58.205Z,203.55
2023-02-04T13:06:25.082Z,226.30
2023-02-04T13:08:51.961Z,214.23
2023-02-04T13:11:22.243Z,175.82
2023-02-04T13:13:49.061Z,167.75
2023-02-04T13:16:18.147Z,162.15
2023-02-04T13:18:45.090Z,161.85
2023-02-04T13:21:11.902Z,174.65
2023-02-04T13:23:38.785Z,184.23
2023-02-04T13:26:06.061Z,202.40
2023-02-04T13:28:32.867Z,180.90
2023-02-04T13:30:59.745Z,162.85
2023-02-04T13:33:26.932Z,175.25
2023-02-04T13:35:53.706Z,168.63
2023-02-04T13:38:20.614Z,145.50
2023-02-04T13:40:47.468Z,145.90
2023-02-04T13:43:17.267Z,164.15
2023-02-04T13:45:49.096Z,146.52
2023-02-04T13:48:16.645Z,153.57
2023-02-04T13:50:43.559Z,150.73
2023-02-04T13:53:10.587Z,158.02
2023-02-04T13:55:37.462Z,156.73
2023-02-04T13:58:04.398Z,164.07
2023-02-04T14:00:32.916Z,144.98
2023-02-04T14:02:59.949Z,153.50
2023-02-04T14:05:26.809Z,172.45
2023-02-04T14:07:53.869Z,152.95
2023-02-04T14:10:23.054Z,160.52
2023-02-04T14:12:50.292Z,152.57
2023-02-04T14:15:17.693Z,130.82
2023-02-04T14:17:47.587Z,146.13
2023-02-04T14:20:14.433Z,154.07
2023-02-04T14:22:41.295Z,152.60
2023-02-04T14:25:10.234Z,130.98
2023-02-04T14:27:41.998Z,126.07
2023-02-04T14:30:29.736Z,140.77
2023-02-04T14:32:57.164Z,144.13
2023-02-04T14:35:24.464Z,137.27
2023-02-04T14:37:51.357Z,141.15
2023-02-04T14:40:19.707Z,138.23
2023-02-04T14:42:47.310Z,152.93
2023-02-04T14:45:15.548Z,149.15
2023-02-04T14:47:42.835Z,173.00
2023-02-04T14:50:14.294Z,154.98
2023-02-04T14:52:41.505Z,153.27
2023-02-04T14:55:11.072Z,167.15
2023-02-04T14:57:37.941Z,184.32
2023-02-04T15:00:06.881Z,178.18
2023-02-04T15:02:33.808Z,177.60
2023-02-04T15:05:03.762Z,183.05
2023-02-04T15:07:30.607Z,194.07
2023-02-04T15:09:57.501Z,201.75
2023-02-04T15:12:24.358Z,186.65
2023-02-04T15:14:51.201Z,201.63
2023-02-04T15:17:18.809Z,199.23
2023-02-04T15:19:46.019Z,197.50
2023-02-04T15:22:12.893Z,188.93
2023-02-04T15:24:39.892Z,193.85
2023-02-04T15:27:07.011Z,182.30
2023-02-04T15:29:33.989Z,189.30
2023-02-04T15:32:00.854Z,187.75
2023-02-04T15:34:27.817Z,183.90
2023-02-04T15:36:55.038Z,193.05
2023-02-04T15:39:21.903Z,185.45
2023-02-04T15:41:48.757Z,198.00
2023-02-04T15:44:15.635Z,201.35
2023-02-04T15:46:42.525Z,202.95
2023-02-04T15:49:12.238Z,184.43
2023-02-04T15:51:39.047Z,187.73
2023-02-04T15:54:06.008Z,187.20
2023-02-04T15:56:32.890Z,174.65
2023-02-04T15:59:02.172Z,177.38
2023-02-04T16:01:29.275Z,186.93
2023-02-04T16:03:56.903Z,187.35
2023-02-04T16:06:27.163Z,173.68
2023-02-04T16:08:54.030Z,175.25
2023-02-04T16:11:20.874Z,191.45
2023-02-04T16:13:47.654Z,169.45
2023-02-04T16:16:17.352Z,173.52
2023-02-04T16:18:44.287Z,175.10
2023-02-04T16:21:11.203Z,173.02
2023-02-04T16:23:41.359Z,173.15
2023-02-04T16:26:09.034Z,159.82
2023-02-04T16:28:35.902Z,170.13
2023-02-04T16:31:02.981Z,180.30
2023-02-04T16:33:29.911Z,179.10
2023-02-04T16:36:02.474Z,184.73
2023-02-04T16:40:57.618Z,174.35
2023-02-04T16:43:24.571Z,194.77
2023-02-04T16:45:51.722Z,181.02
2023-02-04T16:48:18.621Z,161.50
2023-02-04T16:50:45.418Z,178.32
2023-02-04T16:53:16.057Z,189.35
2023-02-04T16:55:44.272Z,176.55
2023-02-04T16:58:12.358Z,173.93
2023-02-04T17:00:42.110Z,161.27
2023-02-04T17:03:10.476Z,156.35
2023-02-04T17:05:38.520Z,150.18
2023-02-04T17:08:06.064Z,175.63
2023-02-04T17:10:51.886Z,159.63
2023-02-04T17:13:19.212Z,156.38
2023-02-04T17:15:46.144Z,150.85
2023-02-04T17:18:13.150Z,164.93
2023-02-04T17:20:39.955Z,131.45
2023-02-04T17:23:06.815Z,153.18
2023-02-04T17:25:34.050Z,132.43
2023-02-04T17:28:01.187Z,140.95
2023-02-04T17:30:29.271Z,125.15
2023-02-04T17:32:56.170Z,121.72
2023-02-04T17:35:22.978Z,126.05
2023-02-04T17:37:49.934Z,128.00
2023-02-04T17:40:19.756Z,110.97
2023-02-04T17:42:46.586Z,114.88
2023-02-04T17:45:13.862Z,107.93
2023-02-04T17:47:41.180Z,100.32
2023-02-04T17:50:10.221Z,93.43
2023-02-04T17:52:37.925Z,101.85
2023-02-04T17:55:25.388Z,99.15
2023-02-04T17:57:52.279Z,109.07
2023-02-04T18:00:21.722Z,95.10
2023-02-04T18:02:51.376Z,90.05
2023-02-04T18:05:27.697Z,89.07
2023-02-04T18:08:11.314Z,80.32
2023-02-04T18:10:41.394Z,80.38
2023-02-04T18:13:31.791Z,95.38
2023-02-04T18:16:10.131Z,81.90
2023-02-04T18:18:40.036Z,81.53
2023-02-04T18:21:25.280Z,99.50
2023-02-04T18:24:19.337Z,70.90
2023-02-04T18:26:52.164Z,63.47
2023-02-04T18:29:31.081Z,64.30
2023-02-04T18:32:02.555Z,56.03
2023-02-04T18:34:38.370Z,64.93
2023-02-04T18:37:26.412Z,57.25
2023-02-04T18:40:16.397Z,71.63
2023-02-04T18:42:44.988Z,79.05
2023-02-04T18:45:25.396Z,70.78
2023-02-04T18:47:57.309Z,59.65
2023-02-04T18:50:30.038Z,64.22
2023-02-04T18:53:06.286Z,61.55
2023-02-04T18:55:37.423Z,52.38
2023-02-04T18:58:42.732Z,59.78
2023-02-04T19:01:12.964Z,61.92
2023-02-04T19:03:59.421Z,59.42
2023-02-04T19:06:38.142Z,54.53
2023-02-04T19:09:14.586Z,57.30
2023-02-04T19:11:51.514Z,52.72
2023-02-04T19:14:21.110Z,41.78
2023-02-04T19:16:52.587Z,41.72
2023-02-04T19:19:36.818Z,43.42
2023-02-04T19:22:37.673Z,42.72
2023-02-04T19:25:24.439Z,47.03
2023-02-04T19:27:54.562Z,43.13
2023-02-04T19:30:27.695Z,48.88
2023-02-04T19:33:10.230Z,48.83
2023-02-04T19:35:41.234Z,42.33
2023-02-04T19:38:43.135Z,46.45
2023-02-04T19:41:33.757Z,44.03
2023-02-04T19:44:12.565Z,44.80
2023-02-04T19:46:41.010Z,63.83
2023-02-04T19:49:13.819Z,43.55
2023-02-04T19:51:40.947Z,54.08
2023-02-04T19:54:39.918Z,53.15
2023-02-04T19:57:28.374Z,49.50
2023-02-04T19:59:56.691Z,55.33
2023-02-04T20:02:38.355Z,55.08
2023-02-04T20:05:19.641Z,54.35
2023-02-04T20:07:46.597Z,50.53
2023-02-04T20:10:29.438Z,48.38
2023-02-04T20:15:26.244Z,51.45
2023-02-04T20:17:53.702Z,44.92
2023-02-04T20:20:29.953Z,56.30
2023-02-04T20:23:16.355Z,53.53
2023-02-04T20:25:48.429Z,56.63
2023-02-04T20:28:21.882Z,49.20
2023-02-04T20:30:50.519Z,64.22
2023-02-04T20:33:25.914Z,46.80
2023-02-04T20:35:52.720Z,54.08
2023-02-04T20:38:20.455Z,52.97
2023-02-04T20:40:47.551Z,43.33
2023-02-04T20:43:34.821Z,41.60
2023-02-04T20:46:07.235Z,46.72
2023-02-04T20:48:37.075Z,52.22
2023-02-04T20:51:07.866Z,42.35
2023-02-04T20:53:53.626Z,48.08
2023-02-04T20:56:35.518Z,51.05
2023-02-04T20:59:14.299Z,56.72
2023-02-04T21:01:44.246Z,66.30
2023-02-04T21:04:24.252Z,61.45
2023-02-04T21:06:53.331Z,63.38
2023-02-04T21:09:29.428Z,57.10
2023-02-04T21:11:57.406Z,66.72
2023-02-04T21:14:26.198Z,70.72
2023-02-04T21:16:54.818Z,70.20
2023-02-04T21:19:24.258Z,89.32
2023-02-04T21:21:51.717Z,71.18
2023-02-04T21:24:18.665Z,89.63
2023-02-04T21:26:45.618Z,75.55
2023-02-04T21:29:12.701Z,77.78
2023-02-04T21:31:39.991Z,84.35
2023-02-04T21:34:07.297Z,91.03
2023-02-04T21:36:34.375Z,86.30
2023-02-04T21:39:01.430Z,78.65
2023-02-04T21:41:31.389Z,74.88
2023-02-04T21:43:58.320Z,93.32
2023-02-04T21:46:25.213Z,80.57
2023-02-04T21:48:53.201Z,69.40
2023-02-04T21:51:20.071Z,69.00
2023-02-04T21:53:46.991Z,74.05
2023-02-04T21:56:14.472Z,76.65
2023-02-04T21:58:41.348Z,75.30
2023-02-04T22:01:09.017Z,75.97
2023-02-04T22:03:35.917Z,74.47
2023-02-04T22:06:02.812Z,54.72
2023-02-04T22:08:29.581Z,63.72
2023-02-04T22:10:56.895Z,52.30
2023-02-04T22:13:26.359Z,51.35
